createdAt,value
2022-10-20T00:02:36.966Z,5.87
2022-10-20T00:05:40.495Z,5.82
2022-10-20T00:08:46.024Z,5.88
2022-10-20T00:11:50.690Z,5.97
2022-10-20T00:14:53.590Z,5.99
2022-10-20T00:17:57.857Z,5.96
2022-10-20T00:21:00.742Z,5.93
2022-10-20T00:24:04.369Z,5.83
2022-10-20T00:27:07.623Z,5.68
2022-10-20T00:30:11.152Z,5.69
2022-10-20T00:33:16.370Z,5.74
2022-10-20T00:36:20.905Z,5.74
2022-10-20T00:39:23.663Z,5.82
2022-10-20T00:42:27.118Z,5.84
2022-10-20T00:45:30.473Z,5.80
2022-10-20T00:48:34.911Z,5.59
2022-10-20T00:51:37.674Z,5.63
2022-10-20T00:54:40.803Z,5.59
2022-10-20T00:57:47.190Z,5.58
2022-10-20T01:00:52.589Z,5.60
2022-10-20T01:03:56.134Z,5.53
2022-10-20T01:06:59.447Z,5.55
2022-10-20T01:10:04.139Z,5.46
2022-10-20T01:13:36.501Z,5.47
2022-10-20T01:16:58.274Z,5.38
2022-10-20T01:20:10.541Z,5.38
2022-10-20T01:23:33.501Z,5.37
2022-10-20T01:26:55.548Z,5.33
2022-10-20T01:30:07.021Z,5.35
2022-10-20T01:33:25.435Z,5.33
2022-10-20T01:36:36.340Z,5.29
2022-10-20T01:39:45.607Z,5.29
2022-10-20T01:42:51.100Z,5.26
2022-10-20T01:45:54.803Z,5.25
2022-10-20T01:48:57.899Z,5.25
2022-10-20T01:52:01.492Z,5.13
2022-10-20T01:55:12.133Z,5.17
2022-10-20T01:58:40.256Z,5.15
2022-10-20T02:02:02.656Z,5.20
2022-10-20T02:05:27.910Z,5.23
2022-10-20T02:08:44.833Z,5.22
2022-10-20T02:12:16.850Z,5.23
2022-10-20T02:15:24.232Z,5.22
2022-10-20T02:18:32.239Z,5.14
2022-10-20T02:21:35.066Z,5.10
2022-10-20T02:24:40.176Z,5.16
2022-10-20T02:27:46.991Z,5.19
2022-10-20T02:30:50.159Z,5.27
2022-10-20T02:33:54.953Z,5.31
2022-10-20T02:36:59.127Z,5.31
2022-10-20T02:40:02.081Z,5.27
2022-10-20T02:43:05.321Z,5.27
2022-10-20T02:46:08.277Z,5.25
2022-10-20T02:49:11.355Z,5.32
2022-10-20T02:52:14.652Z,5.28
2022-10-20T02:58:26.369Z,5.18
2022-10-20T03:01:29.934Z,5.15
2022-10-20T03:04:32.758Z,5.10
2022-10-20T03:07:37.558Z,5.12
2022-10-20T03:10:41.749Z,5.09
2022-10-20T03:13:44.796Z,5.03
2022-10-20T03:16:47.718Z,5.03
2022-10-20T03:19:50.807Z,5.05
2022-10-20T03:22:53.675Z,4.96
2022-10-20T03:26:07.522Z,4.95
2022-10-20T03:29:10.349Z,4.95
2022-10-20T03:32:13.880Z,4.95
2022-10-20T03:35:16.673Z,4.92
2022-10-20T03:38:20.038Z,4.87
2022-10-20T03:41:22.991Z,4.88
2022-10-20T03:44:26.558Z,4.97
2022-10-20T03:47:29.449Z,4.94
2022-10-20T03:50:32.706Z,4.93
2022-10-20T03:53:36.812Z,4.92
2022-10-20T03:56:40.755Z,4.89
2022-10-20T03:59:43.566Z,4.86
2022-10-20T04:02:47.512Z,4.80
2022-10-20T04:05:50.598Z,4.80
2022-10-20T04:08:53.892Z,4.74
2022-10-20T04:11:57.085Z,4.69
2022-10-20T04:14:59.873Z,4.62
2022-10-20T04:18:02.924Z,4.63
2022-10-20T04:21:05.861Z,4.59
2022-10-20T04:24:08.971Z,4.54
2022-10-20T04:27:11.907Z,4.51
2022-10-20T04:30:15.230Z,4.49
2022-10-20T04:33:18.037Z,4.48
2022-10-20T04:36:22.626Z,4.48
2022-10-20T04:39:25.614Z,4.46
2022-10-20T04:42:29.475Z,4.43
2022-10-20T04:45:32.263Z,4.44
2022-10-20T04:48:35.725Z,4.37
2022-10-20T04:51:38.499Z,4.37
2022-10-20T04:54:41.641Z,4.35
2022-10-20T04:57:44.601Z,4.36
2022-10-20T05:00:47.750Z,4.39
2022-10-20T05:03:50.752Z,4.34
2022-10-20T05:06:53.750Z,4.28
2022-10-20T05:09:56.289Z,4.25
2022-10-20T05:12:59.139Z,4.22
2022-10-20T05:16:01.855Z,4.14
2022-10-20T05:19:07.002Z,4.20
2022-10-20T05:22:09.679Z,4.19
2022-10-20T05:25:35.982Z,4.19
2022-10-20T05:28:40.080Z,4.07
2022-10-20T05:31:44.733Z,3.94
2022-10-20T05:34:47.865Z,4.02
2022-10-20T05:37:51.150Z,4.10
2022-10-20T05:40:53.942Z,3.98
2022-10-20T05:43:59.949Z,4.02
2022-10-20T05:47:02.849Z,4.15
2022-10-20T05:50:07.524Z,4.14
2022-10-20T05:53:10.333Z,4.24
2022-10-20T05:56:19.395Z,4.23
2022-10-20T05:59:23.269Z,4.32
2022-10-20T06:02:26.401Z,4.42
2022-10-20T06:05:30.733Z,4.53
2022-10-20T06:08:34.237Z,4.56
2022-10-20T06:11:39.563Z,4.58
2022-10-20T06:14:42.595Z,4.62
2022-10-20T06:17:47.124Z,4.58
2022-10-20T06:20:59.705Z,4.68
2022-10-20T06:24:05.775Z,4.82
2022-10-20T06:27:09.673Z,4.91
2022-10-20T06:30:12.755Z,5.12
2022-10-20T06:33:17.047Z,5.23
2022-10-20T06:36:23.703Z,5.35
2022-10-20T06:39:26.662Z,5.48
2022-10-20T06:42:29.813Z,5.60
2022-10-20T06:45:33.083Z,5.76
2022-10-20T06:48:36.320Z,5.87
2022-10-20T06:51:39.293Z,6.04
2022-10-20T06:54:42.475Z,6.21
2022-10-20T06:57:45.331Z,6.38
2022-10-20T07:00:48.716Z,6.52
2022-10-20T07:03:54.028Z,6.69
2022-10-20T07:06:57.215Z,6.86
2022-10-20T07:09:59.959Z,7.04
2022-10-20T07:13:03.781Z,7.16
2022-10-20T07:16:08.315Z,7.16
2022-10-20T07:19:11.616Z,7.41
2022-10-20T07:22:14.355Z,7.56
2022-10-20T07:25:17.338Z,7.70
2022-10-20T07:28:21.896Z,7.85
2022-10-20T07:31:27.821Z,7.90
2022-10-20T07:34:33.855Z,8.09
2022-10-20T07:37:37.216Z,8.27
2022-10-20T07:40:40.327Z,8.28
2022-10-20T07:43:44.113Z,8.19
2022-10-20T07:46:49.178Z,8.46
2022-10-20T07:49:52.054Z,8.64
2022-10-20T07:52:54.675Z,8.54
2022-10-20T07:55:57.687Z,8.85
2022-10-20T07:59:01.431Z,8.91
2022-10-20T08:02:04.754Z,9.06
2022-10-20T08:05:08.885Z,9.28
2022-10-20T08:08:11.722Z,9.34
2022-10-20T08:11:15.331Z,9.35
2022-10-20T08:14:18.381Z,9.36
2022-10-20T08:20:41.782Z,9.77
2022-10-20T08:23:46.572Z,9.96
2022-10-20T08:26:49.911Z,10.03
2022-10-20T08:30:00.286Z,9.90
2022-10-20T08:33:15.180Z,9.91
2022-10-20T08:36:18.275Z,10.00
2022-10-20T08:39:21.035Z,10.10
2022-10-20T08:42:24.373Z,10.32
2022-10-20T08:45:29.406Z,10.27
2022-10-20T08:48:35.041Z,10.48
2022-10-20T08:51:38.753Z,10.50
2022-10-20T08:54:48.609Z,10.66
2022-10-20T08:57:51.362Z,10.75
2022-10-20T09:00:58.219Z,10.78
2022-10-20T09:04:14.492Z,10.64
2022-10-20T09:07:25.277Z,10.84
2022-10-20T09:10:37.832Z,10.99
2022-10-20T09:13:40.898Z,10.93
2022-10-20T09:16:59.854Z,10.99
2022-10-20T09:20:04.987Z,10.99
2022-10-20T09:23:35.625Z,11.13
2022-10-20T09:30:20.160Z,11.15
2022-10-20T09:33:30.044Z,11.13
2022-10-20T09:36:35.407Z,11.38
2022-10-20T09:39:51.359Z,11.49
2022-10-20T09:43:03.277Z,11.64
2022-10-20T09:46:08.236Z,11.79
2022-10-20T09:49:22.943Z,11.74
2022-10-20T09:52:30.671Z,11.81
2022-10-20T09:55:35.962Z,11.99
2022-10-20T09:58:39.573Z,11.92
2022-10-20T10:02:22.462Z,12.00
2022-10-20T10:05:33.305Z,12.34
2022-10-20T10:08:45.577Z,12.61
2022-10-20T10:12:06.581Z,12.32
2022-10-20T10:15:27.947Z,12.51
2022-10-20T10:18:31.366Z,12.37
2022-10-20T10:21:49.070Z,12.38
2022-10-20T10:24:55.157Z,12.32
2022-10-20T10:28:00.664Z,12.43
2022-10-20T10:31:18.706Z,12.58
2022-10-20T10:34:21.376Z,12.79
2022-10-20T10:37:24.425Z,12.77
2022-10-20T10:40:35.626Z,12.89
2022-10-20T10:43:48.847Z,12.87
2022-10-20T10:47:01.640Z,12.99
2022-10-20T10:50:35.844Z,13.09
2022-10-20T10:53:53.990Z,13.21
2022-10-20T10:57:03.412Z,13.04
2022-10-20T11:00:36.867Z,13.12
2022-10-20T11:03:49.353Z,13.25
2022-10-20T11:07:21.579Z,13.36
2022-10-20T11:10:37.200Z,13.91
2022-10-20T11:13:58.843Z,13.74
2022-10-20T11:17:08.781Z,13.98
2022-10-20T11:20:38.935Z,14.12
2022-10-20T11:24:00.431Z,14.53
2022-10-20T11:27:11.837Z,15.18
2022-10-20T11:30:19.515Z,15.51
2022-10-20T11:33:24.421Z,15.56
2022-10-20T11:36:32.205Z,16.05
2022-10-20T11:40:19.667Z,15.55
2022-10-20T11:43:27.746Z,16.08
2022-10-20T11:46:53.235Z,16.52
2022-10-20T11:49:56.440Z,17.18
2022-10-20T11:53:34.477Z,17.40
2022-10-20T11:57:02.776Z,17.49
2022-10-20T12:00:25.729Z,17.87
2022-10-20T12:04:03.132Z,18.00
2022-10-20T12:07:18.908Z,17.23
2022-10-20T12:10:43.012Z,17.71
2022-10-20T12:14:00.646Z,18.49
2022-10-20T12:17:22.559Z,18.32
2022-10-20T12:20:25.363Z,17.61
2022-10-20T12:23:45.373Z,17.83
2022-10-20T12:27:10.017Z,17.53
2022-10-20T12:30:55.691Z,18.77
2022-10-20T12:34:02.081Z,19.14
2022-10-20T12:37:09.088Z,20.04
2022-10-20T12:40:11.750Z,19.43
2022-10-20T12:43:34.969Z,18.13
2022-10-20T12:46:43.249Z,20.15
2022-10-20T12:49:54.921Z,19.82
2022-10-20T12:53:29.819Z,19.76
2022-10-20T12:56:36.808Z,20.12
2022-10-20T12:59:41.309Z,19.09
2022-10-20T13:02:46.759Z,20.29
2022-10-20T13:05:49.566Z,20.06
2022-10-20T13:09:10.453Z,20.51
2022-10-20T13:12:29.069Z,20.01
2022-10-20T13:15:55.087Z,20.59
2022-10-20T13:18:58.038Z,21.58
2022-10-20T13:22:38.125Z,21.28
2022-10-20T13:25:45.901Z,21.50
2022-10-20T13:28:51.019Z,19.87
2022-10-20T13:32:20.351Z,20.34
2022-10-20T13:35:30.293Z,19.65
2022-10-20T13:38:46.407Z,20.08
2022-10-20T13:42:27.299Z,19.93
2022-10-20T13:45:51.848Z,20.56
2022-10-20T13:48:57.891Z,21.37
2022-10-20T13:52:04.794Z,20.78
2022-10-20T13:55:12.966Z,19.56
2022-10-20T13:58:21.688Z,19.80
2022-10-20T14:01:25.065Z,21.56
2022-10-20T14:04:37.156Z,21.22
2022-10-20T14:07:42.358Z,22.44
2022-10-20T14:10:57.840Z,21.88
2022-10-20T14:14:01.719Z,21.65
2022-10-20T14:17:06.992Z,20.91
2022-10-20T14:20:19.266Z,21.96
2022-10-20T14:23:23.718Z,20.64
2022-10-20T14:26:26.937Z,20.64
2022-10-20T14:29:33.064Z,20.99
2022-10-20T14:32:40.115Z,21.53
2022-10-20T14:35:49.366Z,21.72
2022-10-20T14:38:55.581Z,21.86
2022-10-20T14:42:00.567Z,21.93
2022-10-20T14:45:04.412Z,21.56
2022-10-20T14:48:14.735Z,20.64
2022-10-20T14:51:35.365Z,20.94
2022-10-20T14:54:42.525Z,21.11
2022-10-20T14:57:46.981Z,21.85
2022-10-20T15:00:51.480Z,21.24
2022-10-20T15:07:18.201Z,19.34
2022-10-20T15:10:23.481Z,19.21
2022-10-20T15:13:32.685Z,18.25
2022-10-20T15:16:45.895Z,17.97
2022-10-20T15:19:49.005Z,17.41
2022-10-20T15:22:54.685Z,16.84
2022-10-20T15:26:01.734Z,17.18
2022-10-20T15:29:08.976Z,17.66
2022-10-20T15:32:12.552Z,17.30
2022-10-20T15:35:19.610Z,16.74
2022-10-20T15:38:23.161Z,15.54
2022-10-20T15:41:28.631Z,15.49
2022-10-20T15:44:32.033Z,14.79
2022-10-20T15:47:34.940Z,14.35
2022-10-20T15:50:38.621Z,13.81
2022-10-20T15:53:41.642Z,13.36
2022-10-20T15:56:45.082Z,12.94
2022-10-20T15:59:48.142Z,12.92
2022-10-20T16:02:51.880Z,12.42
2022-10-20T16:05:55.237Z,12.34
2022-10-20T16:08:58.167Z,12.15
2022-10-20T16:12:02.069Z,12.15
2022-10-20T16:15:06.798Z,11.89
2022-10-20T16:18:10.790Z,11.89
2022-10-20T16:21:13.871Z,11.79
2022-10-20T16:24:17.279Z,11.70
2022-10-20T16:27:20.231Z,11.48
2022-10-20T16:30:23.546Z,11.40
2022-10-20T16:33:28.284Z,11.24
2022-10-20T16:36:31.967Z,11.32
2022-10-20T16:39:38.052Z,11.27
2022-10-20T16:42:46.093Z,11.15
2022-10-20T16:45:49.039Z,11.09
2022-10-20T16:48:52.377Z,11.12
2022-10-20T16:51:55.734Z,11.11
2022-10-20T16:54:59.581Z,11.05
2022-10-20T16:58:03.584Z,10.79
2022-10-20T17:01:13.965Z,10.76
2022-10-20T17:04:18.002Z,10.86
2022-10-20T17:07:21.434Z,10.84
2022-10-20T17:10:26.430Z,10.78
2022-10-20T17:13:30.491Z,10.83
2022-10-20T17:16:34.711Z,10.80
2022-10-20T17:19:41.449Z,10.73
2022-10-20T17:22:44.900Z,10.68
2022-10-20T17:25:49.075Z,10.72
2022-10-20T17:28:55.123Z,10.79
2022-10-20T17:31:59.994Z,10.57
2022-10-20T17:35:03.467Z,10.68
2022-10-20T17:38:07.183Z,10.61
2022-10-20T17:41:13.503Z,10.51
2022-10-20T17:44:17.247Z,10.49
2022-10-20T17:47:20.448Z,10.54
2022-10-20T17:50:25.959Z,10.44
2022-10-20T17:53:41.277Z,10.41
2022-10-20T17:56:45.164Z,10.46
2022-10-20T17:59:53.493Z,10.34
2022-10-20T18:02:59.206Z,10.25
2022-10-20T18:06:12.105Z,10.40
2022-10-20T18:09:17.557Z,10.42
2022-10-20T18:12:21.623Z,10.46
2022-10-20T18:15:25.989Z,10.35
2022-10-20T18:18:29.850Z,10.33
2022-10-20T18:21:33.749Z,10.28
2022-10-20T18:24:38.316Z,10.31
2022-10-20T18:27:42.954Z,10.35
2022-10-20T18:30:46.495Z,10.24
2022-10-20T18:33:53.183Z,9.87
2022-10-20T18:36:57.080Z,9.78
2022-10-20T18:40:02.973Z,9.54
2022-10-20T18:43:06.713Z,9.27
2022-10-20T18:46:10.809Z,9.36
2022-10-20T18:49:16.766Z,9.16
2022-10-20T18:52:20.235Z,8.92
2022-10-20T18:55:24.238Z,8.77
2022-10-20T18:58:30.317Z,8.55
2022-10-20T19:01:36.494Z,8.65
2022-10-20T19:04:40.401Z,8.61
2022-10-20T19:07:52.513Z,8.58
2022-10-20T19:10:56.650Z,8.39
2022-10-20T19:14:01.086Z,8.43
2022-10-20T19:17:05.106Z,8.42
2022-10-20T19:20:10.431Z,8.38
2022-10-20T19:23:14.189Z,8.29
2022-10-20T19:26:20.110Z,8.33
2022-10-20T19:29:25.321Z,8.50
2022-10-20T19:32:29.183Z,8.71
2022-10-20T19:35:33.756Z,8.85
2022-10-20T19:38:43.760Z,9.08
2022-10-20T19:41:48.312Z,9.22
2022-10-20T19:44:53.153Z,9.35
2022-10-20T19:47:56.755Z,9.45
2022-10-20T19:51:10.267Z,9.17
2022-10-20T19:54:15.025Z,9.21
2022-10-20T19:57:20.181Z,8.77
2022-10-20T20:00:23.816Z,8.69
2022-10-20T20:03:28.005Z,8.44
2022-10-20T20:06:34.985Z,8.46
2022-10-20T20:09:42.281Z,8.38
2022-10-20T20:12:45.672Z,8.27
2022-10-20T20:15:49.690Z,8.19
2022-10-20T20:18:53.425Z,8.28
2022-10-20T20:21:56.907Z,8.53
2022-10-20T20:25:00.090Z,8.42
2022-10-20T20:28:05.298Z,8.32
2022-10-20T20:31:11.567Z,8.39
2022-10-20T20:34:15.793Z,8.62
2022-10-20T20:37:18.892Z,8.29
2022-10-20T20:40:22.234Z,8.31
2022-10-20T20:43:25.612Z,8.36
2022-10-20T20:46:31.292Z,8.23
2022-10-20T20:49:33.986Z,8.21
2022-10-20T20:52:37.490Z,8.19
2022-10-20T20:55:40.308Z,7.80
2022-10-20T20:58:49.108Z,8.03
2022-10-20T21:01:51.924Z,8.08
2022-10-20T21:04:55.712Z,7.99
2022-10-20T21:07:58.737Z,7.89
2022-10-20T21:11:14.244Z,7.85
2022-10-20T21:14:17.249Z,7.73
2022-10-20T21:17:20.514Z,7.89
2022-10-20T21:20:23.488Z,7.99
2022-10-20T21:23:26.972Z,7.79
2022-10-20T21:26:30.392Z,7.74
2022-10-20T21:29:33.759Z,7.66
2022-10-20T21:32:36.897Z,7.68
2022-10-20T21:35:40.802Z,7.64
2022-10-20T21:38:44.174Z,7.69
2022-10-20T21:41:49.113Z,7.68
2022-10-20T21:44:52.000Z,7.66
2022-10-20T21:47:56.167Z,7.65
2022-10-20T21:50:59.087Z,7.66
2022-10-20T21:54:08.304Z,7.71
2022-10-20T21:57:11.210Z,7.72
2022-10-20T22:00:14.867Z,7.89
2022-10-20T22:03:17.913Z,7.90
2022-10-20T22:06:22.925Z,7.91
2022-10-20T22:09:26.007Z,7.87
2022-10-20T22:12:28.860Z,7.90
2022-10-20T22:15:37.515Z,8.01
2022-10-20T22:18:40.409Z,8.19
2022-10-20T22:21:47.131Z,8.17
2022-10-20T22:24:50.004Z,8.18
2022-10-20T22:27:53.484Z,8.25
2022-10-20T22:30:56.435Z,8.23
2022-10-20T22:34:00.841Z,8.28
2022-10-20T22:37:03.748Z,7.93
2022-10-20T22:40:08.680Z,7.74
2022-10-20T22:43:11.562Z,7.69
2022-10-20T22:46:16.116Z,7.65
2022-10-20T22:49:18.866Z,7.63
2022-10-20T22:52:21.889Z,7.65
2022-10-20T22:55:24.706Z,7.67
2022-10-20T22:58:27.794Z,7.52
2022-10-20T23:01:30.627Z,7.35
2022-10-20T23:04:33.768Z,7.45
2022-10-20T23:07:36.998Z,7.66
2022-10-20T23:10:40.492Z,7.93
2022-10-20T23:13:43.602Z,8.00
2022-10-20T23:16:46.713Z,8.10
2022-10-20T23:19:49.843Z,8.19
2022-10-20T23:22:52.976Z,8.09
2022-10-20T23:25:57.564Z,7.88
2022-10-20T23:29:03.131Z,7.52
2022-10-20T23:32:06.279Z,7.36
2022-10-20T23:35:09.661Z,7.27
2022-10-20T23:38:13.031Z,7.19
2022-10-20T23:41:16.200Z,7.06
2022-10-20T23:44:19.394Z,6.95
2022-10-20T23:47:22.320Z,6.80
2022-10-20T23:50:26.875Z,6.81
2022-10-20T23:53:30.649Z,6.71
2022-10-20T23:56:33.739Z,6.72
2022-10-20T23:59:37.353Z,6.63
